1952 NOT_NAMED (1952021S11140)


IBTrACS version v04r00. Visit IBTrACS website for data access.
Please direct all questions to the IBTrACS Q and A forum

Storm track - Intensity - Wind Radii - Intensity Data - Source Data - All data

Summary Information

Storm ID 1952021S11140
Start Jan 20 23Z
Landfall Jan 21 15Z
End Jan 24 23Z
ATCF IDs ,SH101952
Track status Best track data.

Storm track plot

Map of storm track

Intensity plots

No Intensity information for this storm


Radial wind information

No radial wind information for this storm


Position and Intensity Table

BASIN ISO_TIME_________ NATURE LAT LON
degrees north degrees east
SP 1952-01-20 23:00:00 NR -11.40 139.80
SP 1952-01-21 00:00:00 TS -11.41 139.98
SP 03:00:00 TS -11.46 140.44
SP 06:00:00 TS -11.51 140.89
SP 09:00:00 TS -11.59 141.32
SP 11:00:00 TS -11.67 141.58
SP 12:00:00 TS -11.71 141.71
SP 15:00:00 TS -11.88 142.09
SP 18:00:00 TS -12.11 142.42
SP 21:00:00 TS -12.37 142.74
SP 23:00:00 TS -12.59 142.92
SP 1952-01-22 00:00:00 TS -12.71 142.99
SP 03:00:00 TS -13.13 143.14
SP 06:00:00 TS -13.58 143.20
SP 09:00:00 TS -14.00 143.23
SP 11:00:00 TS -14.28 143.21
SP 12:00:00 TS -14.41 143.20
SP 15:00:00 TS -14.86 143.09
SP 18:00:00 TS -15.29 142.92
SP 21:00:00 TS -15.66 142.74
SP 23:00:00 TS -15.89 142.59
SP 1952-01-23 00:00:00 TS -16.01 142.51
SP 03:00:00 TS -16.36 142.23
SP 06:00:00 TS -16.70 141.91
SP 09:00:00 TS -17.00 141.58
SP 11:00:00 TS -17.20 141.32
SP 12:00:00 TS -17.30 141.19
SP 15:00:00 TS -17.61 140.71
SP 18:00:00 TS -17.91 140.21
SP 21:00:00 TS -18.21 139.74
SP 23:00:00 TS -18.40 139.43
SP 1952-01-24 00:00:00 TS -18.49 139.29
SP 03:00:00 TS -18.74 138.85
SP 06:00:00 TS -18.98 138.41
SP 09:00:00 TS -19.22 137.97
SP 11:00:00 TS -19.40 137.67
SP 12:00:00 TS -19.51 137.52
SP 15:00:00 TS -19.88 137.03
SP 18:00:00 TS -20.31 136.51
SP 21:00:00 NR -20.79 135.97
SP 23:00:00 NR -21.10 135.60

Source Information

Agency Information
USA bsh101952.txt
TOKYO
CMA
HKO
NEWDELHI
REUNION
BOM
NADI
WELLINGTON
DS824 s_hem.dat:576:10P
TD9636 cons_worldwide_trop_cyclone_18710101-19891231-006:Line=3870
TD9635
NEUMANN
MLC

All available IBTrACS Data

SEASON BASIN SUBBASIN ISO_TIME_________ NATURE LAT LON DIST2LAND LANDFALL IFLAG USA AGENCY USA ATCF_ID USA LAT USA LON USA SSHS DS824 LAT DS824 LON DS824 STAGE TD9636 LAT TD9636 LON TD9636 STAGE STORM SPEED STORM DIR
Year degrees north degrees east km km degrees north degrees east 1 degrees north degrees east degrees north degrees east kts degrees
1952 SP EA 1952-01-20 23:00:00 NR -11.40 139.80 225 215 __________O___ -1 -11.40 139.80 2 10 93
1952 SP EA 1952-01-21 00:00:00 TS -11.41 139.98 205 161 O________OP___ jtwc_sh SH101952 -11.40 140.00 -1 -11.40 140.00 TC -11.42 139.96 2 9 95
1952 SP EA 03:00:00 TS -11.46 140.44 161 117 P________PP___ SH101952 -11.45 140.46 -1 -11.45 140.46 TC -11.47 140.42 2 9 97
1952 SP EA 06:00:00 TS -11.51 140.89 117 78 O________OP___ jtwc_sh SH101952 -11.50 140.90 -1 -11.50 140.90 TC -11.53 140.88 2 9 99
1952 SP EA 09:00:00 TS -11.59 141.32 78 44 P________PP___ SH101952 -11.58 141.32 -1 -11.58 141.32 TC -11.62 141.32 2 8 103
1952 SP EA 11:00:00 TS -11.67 141.58 44 34 P________PO___ SH101952 -11.65 141.58 -1 -11.65 141.58 TC -11.70 141.60 2 8 107
1952 SP EA 12:00:00 TS -11.71 141.71 34 0 O________OP___ jtwc_sh SH101952 -11.70 141.70 -1 -11.70 141.70 TC -11.74 141.74 2 8 114
1952 SP EA 15:00:00 TS -11.88 142.09 0 0 P________PP___ SH101952 -11.87 142.07 -1 -11.87 142.07 TC -11.91 142.13 2 8 119
1952 SP EA 18:00:00 TS -12.11 142.42 0 0 O________OP___ jtwc_sh SH101952 -12.10 142.40 -1 -12.10 142.40 TC -12.12 142.47 2 8 127
1952 SP EA 21:00:00 TS -12.37 142.74 0 0 P________PP___ SH101952 -12.36 142.74 -1 -12.36 142.74 TC -12.39 142.75 2 8 135
1952 SP EA 23:00:00 TS -12.59 142.92 0 0 P________PO___ SH101952 -12.58 142.93 -1 -12.58 142.93 TC -12.60 142.90 2 8 144
1952 SP EA 1952-01-22 00:00:00 TS -12.71 142.99 0 0 O________OP___ jtwc_sh SH101952 -12.70 143.00 -1 -12.70 143.00 TC -12.72 142.97 2 9 158
1952 SP EA 03:00:00 TS -13.13 143.14 0 0 P________PP___ SH101952 -13.13 143.15 -1 -13.13 143.15 TC -13.11 143.13 2 9 167
1952 SP EA 06:00:00 TS -13.58 143.20 0 0 O________OP___ jtwc_sh SH101952 -13.60 143.20 -1 -13.60 143.20 TC -13.55 143.21 2 9 174
1952 SP EA 09:00:00 TS -14.00 143.23 0 0 P________PP___ SH101952 -14.00 143.24 -1 -14.00 143.24 TC -14.00 143.23 2 8 0
1952 SP EA 11:00:00 TS -14.28 143.21 0 0 P________PO___ SH101952 -14.26 143.22 -1 -14.26 143.22 TC -14.30 143.20 2 8 186
1952 SP EA 12:00:00 TS -14.41 143.20 0 0 O________OP___ jtwc_sh SH101952 -14.40 143.20 -1 -14.40 143.20 TC -14.44 143.19 2 9 191
1952 SP EA 15:00:00 TS -14.86 143.09 0 0 P________PP___ SH101952 -14.86 143.08 -1 -14.86 143.08 TC -14.86 143.11 2 9 197
1952 SP EA 18:00:00 TS -15.29 142.92 0 0 O________OP___ jtwc_sh SH101952 -15.30 142.90 -1 -15.30 142.90 TC -15.26 142.97 2 9 203
1952 SP EA 21:00:00 TS -15.66 142.74 0 0 P________PP___ SH101952 -15.66 142.72 -1 -15.66 142.72 TC -15.65 142.76 2 8 208
1952 SP EA 23:00:00 TS -15.89 142.59 0 0 P________PO___ SH101952 -15.89 142.58 -1 -15.89 142.58 TC -15.90 142.60 2 8 212
1952 SP EA 1952-01-23 00:00:00 TS -16.01 142.51 0 0 O________OP___ jtwc_sh SH101952 -16.00 142.50 -1 -16.00 142.50 TC -16.02 142.52 2 9 216
1952 SP EA 03:00:00 TS -16.36 142.23 0 0 P________PP___ SH101952 -16.36 142.22 -1 -16.36 142.22 TC -16.36 142.25 2 9 220
1952 SP EA 06:00:00 TS -16.70 141.91 0 0 O________OP___ jtwc_sh SH101952 -16.70 141.90 -1 -16.70 141.90 TC -16.69 141.94 2 9 224
1952 SP EA 09:00:00 TS -17.00 141.58 0 0 P________PP___ SH101952 -17.01 141.58 -1 -17.01 141.58 TC -17.00 141.57 2 9 228
1952 SP EA 11:00:00 TS -17.20 141.32 0 0 P________PO___ SH101952 -17.20 141.34 -1 -17.20 141.34 TC -17.20 141.30 2 10 231
1952 SP EA 12:00:00 TS -17.30 141.19 0 0 O________OP___ jtwc_sh SH101952 -17.30 141.20 -1 -17.30 141.20 TC -17.31 141.16 2 11 235
1952 SP EA 15:00:00 TS -17.61 140.71 0 0 P________PP___ SH101952 -17.60 140.71 -1 -17.60 140.71 TC -17.62 140.70 2 11 237
1952 SP EA 18:00:00 TS -17.91 140.21 0 0 O________OP___ jtwc_sh SH101952 -17.90 140.20 -1 -17.90 140.20 TC -17.92 140.22 2 11 237
1952 SP EA 21:00:00 TS -18.21 139.74 0 0 P________PP___ SH101952 -18.21 139.74 -1 -18.21 139.74 TC -18.21 139.72 2 11 236
1952 SP EA 23:00:00 TS -18.40 139.43 0 0 P________PO___ SH101952 -18.41 139.45 -1 -18.41 139.45 TC -18.40 139.40 2 10 236
1952 SP EA 1952-01-24 00:00:00 TS -18.49 139.29 0 0 O________OP___ jtwc_sh SH101952 -18.50 139.30 -1 -18.50 139.30 TC -18.48 139.26 2 10 239
1952 SP EA 03:00:00 TS -18.74 138.85 0 0 P________PP___ SH101952 -18.76 138.85 -1 -18.76 138.85 TC -18.71 138.84 2 10 240
1952 SP EA 06:00:00 TS -18.98 138.41 0 0 O________OP___ jtwc_sh SH101952 -19.00 138.40 -1 -19.00 138.40 TC -18.94 138.42 2 10 240
1952 SP EA 09:00:00 TS -19.22 137.97 0 0 P________PP___ SH101952 -19.23 137.96 -1 -19.23 137.96 TC -19.20 138.00 2 10 239
1952 SP EA 11:00:00 TS -19.40 137.67 0 0 P________PO___ SH101952 -19.40 137.66 -1 -19.40 137.66 TC -19.40 137.70 2 10 236
1952 SP EA 12:00:00 TS -19.51 137.52 0 0 O________OP___ jtwc_sh SH101952 -19.50 137.50 -1 -19.50 137.50 TC -19.51 137.54 2 12 231
1952 SP EA 15:00:00 TS -19.88 137.03 0 0 P________PP___ SH101952 -19.87 137.01 -1 -19.87 137.01 TC -19.89 137.05 2 12 229
1952 SP EA 18:00:00 TS -20.31 136.51 0 0 O________OP___ jtwc_sh SH101952 -20.30 136.50 -1 -20.30 136.50 TC -20.32 136.52 2 13 228
1952 SP EA 21:00:00 NR -20.79 135.97 0 0 __________P___ SH101952 -1 TC -20.79 135.97 2 14 227
1952 SP EA 23:00:00 NR -21.10 135.60 0 __________O___ SH101952 -1 TC -21.10 135.60 2 14 228